Weather History for Walnut Ridge, AR

Change the Weather History Date:

Tuesday, December 27, 2011

  Actual Average Record
Temperature  
Mean Temperature 42 °F -  
Max Temperature 51 °F 42 °F 69 °F (2008)
Min Temperature 33 °F 28 °F 12 °F (2012)
Degree Days  
Heating Degree Days 23    
Moisture  
Dew Point 34 °F    
Average Humidity 75    
Maximum Humidity 100    
Minimum Humidity 44    
Precipitation  
Precipitation 0.22 in - - ()
Sea Level Pressure  
Sea Level Pressure 29.95 in    
Wind  
Wind Speed 11 mph (West)    
Max Wind Speed 18 mph    
Max Gust Speed 26 mph    
Visibility 10 miles    
Events      
Averages and records for this station are not official NWS values.
T = Trace of Precipitation, MM = Missing Value Source: NWS Daily Summary

Daily Weather History Graph

Daily Weather History Graph

Search for Another Location

Airport:

Trip Planner

Search our weather history database for the weather conditions in past years. The results will help you decide how hot, cold, wet, or windy it might be!

Date:

Astronomy

Dec. 27, 2011 Rise Set
Actual Time 7:13 AM CST 4:56 PM CST
Civil Twilight 6:44 AM CST 5:24 PM CST
Nautical Twilight 6:12 AM CST 5:57 PM CST
Astronomical Twilight 5:41 AM CST 6:28 PM CST
Moon 9:13 AM CST (12/27) 8:23 PM CST (12/27)
Length of Visible Light 10h 40m
Length of Day
9h 42m
Waxing Crescent, 11% of the Moon is Illuminated
Dec 27
Waxing Crescent
Jan 1
First Quarter
Jan 9
Full
Jan 16
Last Quarter
Jan 23
New

Hourly Weather History & Observations

Time (CST) Temp. Windchill Dew Point Humidity Pressure Visibility Wind Dir Wind Speed Gust Speed Precip Events Conditions
12:35 AM 39.2 °F 32.5 °F 37.4 °F 93% 29.84 in 3.0 mi NW 10.4 mph - 0.02 in   Overcast
12:55 AM 37.4 °F 30.3 °F 37.4 °F 100% 29.83 in 7.0 mi NW 10.4 mph - 0.03 in   Overcast
1:15 AM 37.4 °F 30.8 °F 35.6 °F 93% 29.83 in 10.0 mi NW 9.2 mph - N/A   Overcast
1:35 AM 37.4 °F 29.8 °F 37.4 °F 100% 29.82 in 10.0 mi NW 11.5 mph - N/A   Overcast
1:55 AM 37.4 °F 30.3 °F 37.4 °F 100% 29.80 in 8.0 mi NNW 10.4 mph - N/A   Overcast
2:15 AM 37.4 °F 30.3 °F 37.4 °F 100% 29.80 in 10.0 mi NW 10.4 mph - 0.01 in   Overcast
2:35 AM 37.4 °F 30.8 °F 35.6 °F 93% 29.79 in 10.0 mi NW 9.2 mph - 0.03 in   Overcast
2:55 AM 37.4 °F 30.3 °F 35.6 °F 93% 29.80 in 10.0 mi WNW 10.4 mph - 0.05 in   Overcast
3:15 AM 35.6 °F 28.0 °F 33.8 °F 93% 29.82 in 9.0 mi West 10.4 mph - 0.03 in   Overcast
3:35 AM 33.8 °F 26.4 °F 32.0 °F 93% 29.82 in 3.0 mi West 9.2 mph - 0.05 in   Overcast
3:55 AM 33.8 °F 26.4 °F 32.0 °F 93% 29.83 in 4.0 mi West 9.2 mph - 0.06 in   Overcast
4:35 AM 33.8 °F 28.6 °F 33.8 °F 100% 29.82 in 10.0 mi West 5.8 mph - 0.05 in   Mostly Cloudy
4:55 AM 33.8 °F 28.6 °F 33.8 °F 100% 29.82 in 10.0 mi WSW 5.8 mph - 0.06 in   Mostly Cloudy
5:15 AM 33.8 °F 27.0 °F 33.8 °F 100% 29.83 in 10.0 mi WSW 8.1 mph - 0.01 in   Mostly Cloudy
5:35 AM 33.8 °F 26.4 °F 32.0 °F 93% 29.83 in 10.0 mi WSW 9.2 mph - 0.02 in   Overcast
6:15 AM 33.8 °F 26.4 °F 32.0 °F 93% 29.85 in 10.0 mi WSW 9.2 mph - N/A   Overcast
6:35 AM 35.6 °F 28.6 °F 33.8 °F 93% 29.86 in 10.0 mi WSW 9.2 mph - N/A   Overcast
6:55 AM 35.6 °F 28.6 °F 35.6 °F 100% 29.86 in 10.0 mi WSW 9.2 mph - N/A   Overcast
7:15 AM 35.6 °F 28.0 °F 35.6 °F 100% 29.87 in 10.0 mi West 10.4 mph - N/A   Overcast
7:35 AM 37.4 °F 30.8 °F 35.6 °F 93% 29.87 in 10.0 mi West 9.2 mph - N/A   Overcast
8:15 AM 37.4 °F 30.8 °F 35.6 °F 93% 29.89 in 10.0 mi West 9.2 mph - N/A   Clear
8:35 AM 39.2 °F 33.6 °F 37.4 °F 93% 29.89 in 10.0 mi West 8.1 mph - N/A   Partly Cloudy
8:55 AM 39.2 °F 32.5 °F 37.4 °F 93% 29.90 in 10.0 mi West 10.4 mph - N/A   Clear
9:15 AM 42.8 °F 36.2 °F 39.2 °F 87% 29.91 in 10.0 mi West 12.7 mph - N/A   Clear
9:35 AM 42.8 °F 35.1 °F 37.4 °F 81% 29.91 in 10.0 mi West 16.1 mph 23.0 mph N/A   Clear
9:55 AM 44.6 °F 37.4 °F 37.4 °F 76% 29.92 in 10.0 mi West 16.1 mph 26.5 mph N/A   Clear
10:15 AM 44.6 °F 37.8 °F 37.4 °F 76% 29.93 in 10.0 mi West 15.0 mph 20.7 mph N/A   Clear
10:35 AM 44.6 °F 37.8 °F 37.4 °F 76% 29.93 in 10.0 mi West 15.0 mph 20.7 mph N/A   Clear
10:55 AM 46.4 °F 40.4 °F 39.2 °F 76% 29.93 in 10.0 mi West 13.8 mph - N/A   Clear
11:15 AM 46.4 °F 40.1 °F 39.2 °F 76% 29.93 in 10.0 mi West 15.0 mph 20.7 mph N/A   Clear
11:35 AM 48.2 °F - 37.4 °F 66% 29.92 in 10.0 mi West 15.0 mph 19.6 mph N/A   Clear
11:55 AM 48.2 °F - 37.4 °F 66% 29.92 in 10.0 mi West 16.1 mph 20.7 mph N/A   Clear
12:15 PM 50.0 °F - 37.4 °F 62% 29.92 in 10.0 mi West 16.1 mph 21.9 mph N/A   Clear
12:35 PM 50.0 °F - 37.4 °F 62% 29.92 in 10.0 mi West 16.1 mph - N/A   Clear
12:55 PM 51.8 °F - 39.2 °F 62% 29.91 in 10.0 mi West 15.0 mph 20.7 mph N/A   Clear
1:35 PM 51.8 °F - 37.4 °F 58% 29.92 in 10.0 mi West 16.1 mph 20.7 mph N/A   Partly Cloudy
1:55 PM 51.8 °F - 35.6 °F 54% 29.93 in 10.0 mi WNW 18.4 mph 23.0 mph N/A   Scattered Clouds
2:15 PM 51.8 °F - 35.6 °F 54% 29.93 in 10.0 mi West 17.3 mph 25.3 mph N/A   Partly Cloudy
2:35 PM 51.8 °F - 35.6 °F 54% 29.94 in 10.0 mi West 18.4 mph 23.0 mph N/A   Partly Cloudy
2:55 PM 51.8 °F - 33.8 °F 50% 29.95 in 10.0 mi West 18.4 mph 23.0 mph N/A   Clear
3:35 PM 51.8 °F - 30.2 °F 44% 29.97 in 10.0 mi West 12.7 mph - N/A   Clear
3:55 PM 51.8 °F - 30.2 °F 44% 29.98 in 10.0 mi WNW 13.8 mph 23.0 mph N/A   Clear
4:15 PM 50.0 °F - 32.0 °F 50% 29.99 in 10.0 mi West 8.1 mph - N/A   Clear
4:35 PM 50.0 °F - 30.2 °F 47% 30.00 in 10.0 mi WNW 11.5 mph - N/A   Clear
4:55 PM 48.2 °F - 30.2 °F 50% 30.01 in 10.0 mi West 10.4 mph - N/A   Clear
5:15 PM 46.4 °F 41.9 °F 30.2 °F 53% 30.02 in 10.0 mi West 9.2 mph - N/A   Clear
5:55 PM 46.4 °F 41.9 °F 30.2 °F 53% 30.04 in 10.0 mi West 9.2 mph - N/A   Clear
6:15 PM 44.6 °F 40.2 °F 30.2 °F 57% 30.04 in 10.0 mi West 8.1 mph - N/A   Clear
6:55 PM 44.6 °F 40.2 °F 30.2 °F 57% 30.07 in 10.0 mi West 8.1 mph - N/A   Clear
7:15 PM 42.8 °F 38.0 °F 30.2 °F 61% 30.08 in 10.0 mi West 8.1 mph - N/A   Clear
7:35 PM 42.8 °F 38.0 °F 30.2 °F 61% 30.09 in 10.0 mi West 8.1 mph - N/A   Clear
7:55 PM 42.8 °F 38.6 °F 30.2 °F 61% 30.09 in 10.0 mi West 6.9 mph - N/A   Clear
8:15 PM 42.8 °F 39.3 °F 30.2 °F 61% 30.09 in 10.0 mi West 5.8 mph - N/A   Clear
8:35 PM 41.0 °F 35.8 °F 30.2 °F 65% 30.10 in 10.0 mi West 8.1 mph - N/A   Clear
9:15 PM 41.0 °F 36.4 °F 30.2 °F 65% 30.09 in 10.0 mi West 6.9 mph - N/A   Clear
9:35 PM 41.0 °F 35.8 °F 28.4 °F 61% 30.10 in 10.0 mi West 8.1 mph - N/A   Clear
9:55 PM 39.2 °F 34.2 °F 30.2 °F 70% 30.11 in 10.0 mi West 6.9 mph - N/A   Clear
10:15 PM 39.2 °F 34.2 °F 28.4 °F 65% 30.13 in 10.0 mi West 6.9 mph - N/A   Clear
10:35 PM 39.2 °F 34.2 °F 28.4 °F 65% 30.13 in 10.0 mi West 6.9 mph - N/A   Clear
10:55 PM 37.4 °F 32.8 °F 28.4 °F 70% 30.13 in 10.0 mi West 5.8 mph - N/A   Clear
11:15 PM 37.4 °F 32.8 °F 28.4 °F 70% 30.13 in 10.0 mi West 5.8 mph - N/A   Clear
11:35 PM 37.4 °F 32.8 °F 28.4 °F 70% 30.13 in 10.0 mi West 5.8 mph - N/A   Clear
11:55 PM 37.4 °F 32.8 °F 28.4 °F 70% 30.12 in 10.0 mi West 5.8 mph - N/A   Clear